sensor_id;sensor_type;location;lat;lon;timestamp;P1;durP1;ratioP1;P2;durP2;ratioP2
78053;SDS011;67726;45.636;11.752;2023-09-19T00:01:32;33.67;;;16.87;;
78053;SDS011;67726;45.636;11.752;2023-09-19T00:03:59;29.83;;;17.30;;
78053;SDS011;67726;45.636;11.752;2023-09-19T00:06:28;33.55;;;16.88;;
78053;SDS011;67726;45.636;11.752;2023-09-19T00:08:56;32.60;;;17.75;;
78053;SDS011;67726;45.636;11.752;2023-09-19T00:11:25;28.95;;;15.68;;
78053;SDS011;67726;45.636;11.752;2023-09-19T00:13:52;30.20;;;16.70;;
78053;SDS011;67726;45.636;11.752;2023-09-19T00:16:17;30.23;;;16.65;;
78053;SDS011;67726;45.636;11.752;2023-09-19T00:18:44;32.35;;;17.88;;
78053;SDS011;67726;45.636;11.752;2023-09-19T00:21:10;33.97;;;16.45;;
78053;SDS011;67726;45.636;11.752;2023-09-19T00:23:36;32.50;;;17.07;;
78053;SDS011;67726;45.636;11.752;2023-09-19T00:26:02;35.00;;;17.93;;
78053;SDS011;67726;45.636;11.752;2023-09-19T00:28:28;32.33;;;17.65;;
78053;SDS011;67726;45.636;11.752;2023-09-19T00:30:55;33.47;;;17.13;;
78053;SDS011;67726;45.636;11.752;2023-09-19T00:33:21;33.90;;;18.33;;
78053;SDS011;67726;45.636;11.752;2023-09-19T00:35:51;40.33;;;17.90;;
78053;SDS011;67726;45.636;11.752;2023-09-19T00:38:18;35.70;;;17.42;;
78053;SDS011;67726;45.636;11.752;2023-09-19T00:40:49;30.23;;;16.40;;
78053;SDS011;67726;45.636;11.752;2023-09-19T00:43:16;27.80;;;15.18;;
78053;SDS011;67726;45.636;11.752;2023-09-19T00:45:46;31.43;;;14.47;;
78053;SDS011;67726;45.636;11.752;2023-09-19T00:48:14;35.47;;;16.57;;
78053;SDS011;67726;45.636;11.752;2023-09-19T00:50:41;31.75;;;16.00;;
78053;SDS011;67726;45.636;11.752;2023-09-19T00:53:09;26.02;;;14.48;;
78053;SDS011;67726;45.636;11.752;2023-09-19T00:55:38;29.33;;;16.25;;
78053;SDS011;67726;45.636;11.752;2023-09-19T00:58:05;30.52;;;16.27;;
78053;SDS011;67726;45.636;11.752;2023-09-19T01:00:32;34.27;;;16.60;;
78053;SDS011;67726;45.636;11.752;2023-09-19T01:02:59;27.45;;;15.63;;
78053;SDS011;67726;45.636;11.752;2023-09-19T01:05:28;28.83;;;15.65;;
78053;SDS011;67726;45.636;11.752;2023-09-19T01:07:55;29.15;;;15.20;;
78053;SDS011;67726;45.636;11.752;2023-09-19T01:10:20;26.97;;;15.13;;
78053;SDS011;67726;45.636;11.752;2023-09-19T01:21:21;25.43;;;14.40;;
78053;SDS011;67726;45.636;11.752;2023-09-19T01:29:23;33.13;;;15.52;;
78053;SDS011;67726;45.636;11.752;2023-09-19T01:31:57;25.95;;;14.93;;
78053;SDS011;67726;45.636;11.752;2023-09-19T01:34:45;30.07;;;15.20;;
78053;SDS011;67726;45.636;11.752;2023-09-19T01:37:14;30.02;;;14.65;;
78053;SDS011;67726;45.636;11.752;2023-09-19T01:39:45;26.73;;;14.20;;
78053;SDS011;67726;45.636;11.752;2023-09-19T01:48:13;29.50;;;14.57;;
78053;SDS011;67726;45.636;11.752;2023-09-19T01:51:05;26.00;;;13.57;;
78053;SDS011;67726;45.636;11.752;2023-09-19T01:59:13;30.92;;;14.57;;
78053;SDS011;67726;45.636;11.752;2023-09-19T02:01:46;28.13;;;14.20;;
78053;SDS011;67726;45.636;11.752;2023-09-19T02:04:14;25.48;;;15.00;;
78053;SDS011;67726;45.636;11.752;2023-09-19T02:06:43;28.25;;;14.23;;
78053;SDS011;67726;45.636;11.752;2023-09-19T02:09:09;27.55;;;14.35;;
78053;SDS011;67726;45.636;11.752;2023-09-19T02:11:35;27.67;;;15.33;;
78053;SDS011;67726;45.636;11.752;2023-09-19T02:14:01;33.70;;;15.27;;
78053;SDS011;67726;45.636;11.752;2023-09-19T02:16:28;30.55;;;16.00;;
78053;SDS011;67726;45.636;11.752;2023-09-19T02:18:54;28.30;;;13.77;;
78053;SDS011;67726;45.636;11.752;2023-09-19T02:21:19;29.60;;;15.50;;
78053;SDS011;67726;45.636;11.752;2023-09-19T02:23:46;33.30;;;16.20;;
78053;SDS011;67726;45.636;11.752;2023-09-19T02:26:12;34.17;;;16.15;;
78053;SDS011;67726;45.636;11.752;2023-09-19T02:28:39;32.92;;;15.85;;
78053;SDS011;67726;45.636;11.752;2023-09-19T02:31:04;31.75;;;15.93;;
78053;SDS011;67726;45.636;11.752;2023-09-19T02:33:30;30.97;;;15.43;;
78053;SDS011;67726;45.636;11.752;2023-09-19T02:35:58;31.55;;;16.23;;
78053;SDS011;67726;45.636;11.752;2023-09-19T02:38:24;30.58;;;15.00;;
78053;SDS011;67726;45.636;11.752;2023-09-19T02:40:51;27.33;;;14.75;;
78053;SDS011;67726;45.636;11.752;2023-09-19T02:43:17;27.53;;;12.80;;
78053;SDS011;67726;45.636;11.752;2023-09-19T02:45:44;30.02;;;15.07;;
78053;SDS011;67726;45.636;11.752;2023-09-19T02:48:11;30.45;;;15.57;;
78053;SDS011;67726;45.636;11.752;2023-09-19T02:50:37;32.42;;;15.93;;
78053;SDS011;67726;45.636;11.752;2023-09-19T02:53:05;31.17;;;16.57;;
78053;SDS011;67726;45.636;11.752;2023-09-19T02:55:31;32.28;;;16.02;;
78053;SDS011;67726;45.636;11.752;2023-09-19T02:57:57;33.17;;;15.98;;
78053;SDS011;67726;45.636;11.752;2023-09-19T03:00:23;29.77;;;16.30;;
78053;SDS011;67726;45.636;11.752;2023-09-19T03:02:49;32.10;;;16.80;;
78053;SDS011;67726;45.636;11.752;2023-09-19T03:05:18;40.63;;;17.38;;
78053;SDS011;67726;45.636;11.752;2023-09-19T03:07:44;29.00;;;16.17;;
78053;SDS011;67726;45.636;11.752;2023-09-19T03:10:20;32.85;;;16.10;;
78053;SDS011;67726;45.636;11.752;2023-09-19T03:12:47;38.90;;;20.17;;
78053;SDS011;67726;45.636;11.752;2023-09-19T03:15:13;40.38;;;19.75;;
78053;SDS011;67726;45.636;11.752;2023-09-19T03:17:49;38.38;;;18.90;;
78053;SDS011;67726;45.636;11.752;2023-09-19T03:20:17;39.28;;;18.35;;
78053;SDS011;67726;45.636;11.752;2023-09-19T03:22:43;36.80;;;18.70;;
78053;SDS011;67726;45.636;11.752;2023-09-19T03:25:09;34.13;;;17.52;;
78053;SDS011;67726;45.636;11.752;2023-09-19T03:27:38;38.15;;;19.15;;
78053;SDS011;67726;45.636;11.752;2023-09-19T03:30:05;41.60;;;19.08;;
78053;SDS011;67726;45.636;11.752;2023-09-19T03:32:37;34.47;;;18.45;;
78053;SDS011;67726;45.636;11.752;2023-09-19T03:35:08;32.40;;;17.00;;
78053;SDS011;67726;45.636;11.752;2023-09-19T03:37:34;38.40;;;18.65;;
78053;SDS011;67726;45.636;11.752;2023-09-19T03:39:59;32.27;;;16.03;;
78053;SDS011;67726;45.636;11.752;2023-09-19T03:42:29;39.85;;;17.48;;
78053;SDS011;67726;45.636;11.752;2023-09-19T03:44:55;29.42;;;15.93;;
78053;SDS011;67726;45.636;11.752;2023-09-19T03:47:21;31.50;;;15.85;;
78053;SDS011;67726;45.636;11.752;2023-09-19T03:49:47;30.38;;;16.38;;
78053;SDS011;67726;45.636;11.752;2023-09-19T03:52:13;31.43;;;15.83;;
78053;SDS011;67726;45.636;11.752;2023-09-19T03:54:40;29.67;;;14.63;;
78053;SDS011;67726;45.636;11.752;2023-09-19T03:57:06;26.83;;;15.30;;
78053;SDS011;67726;45.636;11.752;2023-09-19T03:59:32;31.50;;;16.02;;
78053;SDS011;67726;45.636;11.752;2023-09-19T04:01:58;28.15;;;15.45;;
78053;SDS011;67726;45.636;11.752;2023-09-19T04:04:24;30.53;;;15.20;;
78053;SDS011;67726;45.636;11.752;2023-09-19T04:06:53;31.20;;;14.98;;
78053;SDS011;67726;45.636;11.752;2023-09-19T04:09:18;29.88;;;14.95;;
78053;SDS011;67726;45.636;11.752;2023-09-19T04:11:44;29.37;;;15.93;;
78053;SDS011;67726;45.636;11.752;2023-09-19T04:14:10;34.50;;;16.20;;
78053;SDS011;67726;45.636;11.752;2023-09-19T04:16:35;28.93;;;14.50;;
78053;SDS011;67726;45.636;11.752;2023-09-19T04:19:01;33.77;;;17.40;;
78053;SDS011;67726;45.636;11.752;2023-09-19T04:21:28;32.90;;;16.65;;
78053;SDS011;67726;45.636;11.752;2023-09-19T04:23:54;32.42;;;15.07;;
78053;SDS011;67726;45.636;11.752;2023-09-19T04:26:20;30.00;;;15.13;;
78053;SDS011;67726;45.636;11.752;2023-09-19T04:28:46;24.97;;;14.60;;
78053;SDS011;67726;45.636;11.752;2023-09-19T04:31:12;34.72;;;15.27;;
78053;SDS011;67726;45.636;11.752;2023-09-19T04:33:39;32.05;;;15.55;;
78053;SDS011;67726;45.636;11.752;2023-09-19T04:36:05;25.20;;;13.50;;
78053;SDS011;67726;45.636;11.752;2023-09-19T04:38:32;28.80;;;14.50;;
78053;SDS011;67726;45.636;11.752;2023-09-19T04:40:58;23.38;;;13.35;;
78053;SDS011;67726;45.636;11.752;2023-09-19T04:43:24;28.60;;;15.20;;
78053;SDS011;67726;45.636;11.752;2023-09-19T04:45:50;26.92;;;13.50;;
78053;SDS011;67726;45.636;11.752;2023-09-19T04:48:20;29.52;;;14.80;;
78053;SDS011;67726;45.636;11.752;2023-09-19T04:50:48;26.48;;;13.95;;
78053;SDS011;67726;45.636;11.752;2023-09-19T04:53:14;29.08;;;14.50;;
78053;SDS011;67726;45.636;11.752;2023-09-19T04:55:40;25.90;;;12.77;;
78053;SDS011;67726;45.636;11.752;2023-09-19T04:58:05;25.60;;;13.43;;
78053;SDS011;67726;45.636;11.752;2023-09-19T05:00:31;24.15;;;13.98;;
78053;SDS011;67726;45.636;11.752;2023-09-19T05:03:00;26.83;;;13.27;;
78053;SDS011;67726;45.636;11.752;2023-09-19T05:05:25;30.73;;;14.33;;
78053;SDS011;67726;45.636;11.752;2023-09-19T05:07:51;27.85;;;13.40;;
78053;SDS011;67726;45.636;11.752;2023-09-19T05:10:19;25.23;;;12.82;;
78053;SDS011;67726;45.636;11.752;2023-09-19T05:12:45;27.57;;;14.17;;
78053;SDS011;67726;45.636;11.752;2023-09-19T05:15:13;25.00;;;12.85;;
78053;SDS011;67726;45.636;11.752;2023-09-19T05:17:42;30.73;;;12.55;;
78053;SDS011;67726;45.636;11.752;2023-09-19T05:20:17;27.45;;;12.65;;
78053;SDS011;67726;45.636;11.752;2023-09-19T05:23:06;26.40;;;13.60;;
78053;SDS011;67726;45.636;11.752;2023-09-19T05:25:39;26.90;;;14.50;;
78053;SDS011;67726;45.636;11.752;2023-09-19T05:28:05;27.77;;;12.98;;
78053;SDS011;67726;45.636;11.752;2023-09-19T05:30:32;28.10;;;13.20;;
78053;SDS011;67726;45.636;11.752;2023-09-19T05:32:58;26.05;;;12.75;;
78053;SDS011;67726;45.636;11.752;2023-09-19T05:35:24;26.57;;;11.80;;
78053;SDS011;67726;45.636;11.752;2023-09-19T05:37:51;27.48;;;12.63;;
78053;SDS011;67726;45.636;11.752;2023-09-19T05:40:17;24.65;;;12.43;;
78053;SDS011;67726;45.636;11.752;2023-09-19T05:42:43;20.58;;;10.68;;
78053;SDS011;67726;45.636;11.752;2023-09-19T05:45:09;22.97;;;12.00;;
78053;SDS011;67726;45.636;11.752;2023-09-19T05:47:41;22.98;;;11.52;;
78053;SDS011;67726;45.636;11.752;2023-09-19T05:50:09;20.55;;;11.02;;
78053;SDS011;67726;45.636;11.752;2023-09-19T05:52:35;19.50;;;10.70;;
78053;SDS011;67726;45.636;11.752;2023-09-19T05:55:03;22.90;;;10.97;;
78053;SDS011;67726;45.636;11.752;2023-09-19T05:57:31;21.52;;;9.48;;
78053;SDS011;67726;45.636;11.752;2023-09-19T05:59:57;22.55;;;10.15;;
78053;SDS011;67726;45.636;11.752;2023-09-19T06:02:23;15.90;;;8.07;;
78053;SDS011;67726;45.636;11.752;2023-09-19T06:04:50;15.27;;;7.85;;
78053;SDS011;67726;45.636;11.752;2023-09-19T06:07:18;18.60;;;7.93;;
78053;SDS011;67726;45.636;11.752;2023-09-19T06:09:43;17.20;;;8.25;;
78053;SDS011;67726;45.636;11.752;2023-09-19T06:12:09;23.73;;;8.00;;
78053;SDS011;67726;45.636;11.752;2023-09-19T06:14:37;14.18;;;7.18;;
78053;SDS011;67726;45.636;11.752;2023-09-19T06:17:05;15.50;;;7.13;;
78053;SDS011;67726;45.636;11.752;2023-09-19T06:19:31;13.70;;;7.07;;
78053;SDS011;67726;45.636;11.752;2023-09-19T06:21:58;15.93;;;6.43;;
78053;SDS011;67726;45.636;11.752;2023-09-19T06:24:24;11.52;;;6.10;;
78053;SDS011;67726;45.636;11.752;2023-09-19T06:26:50;13.73;;;6.38;;
78053;SDS011;67726;45.636;11.752;2023-09-19T06:29:18;14.18;;;6.43;;
78053;SDS011;67726;45.636;11.752;2023-09-19T06:31:45;13.25;;;6.32;;
78053;SDS011;67726;45.636;11.752;2023-09-19T06:34:12;11.90;;;6.20;;
78053;SDS011;67726;45.636;11.752;2023-09-19T06:36:40;14.65;;;6.68;;
78053;SDS011;67726;45.636;11.752;2023-09-19T06:39:06;11.35;;;5.47;;
78053;SDS011;67726;45.636;11.752;2023-09-19T06:41:36;13.52;;;6.50;;
78053;SDS011;67726;45.636;11.752;2023-09-19T06:44:04;12.47;;;5.57;;
78053;SDS011;67726;45.636;11.752;2023-09-19T06:46:30;15.30;;;6.57;;
78053;SDS011;67726;45.636;11.752;2023-09-19T06:49:00;14.57;;;6.32;;
78053;SDS011;67726;45.636;11.752;2023-09-19T06:51:32;14.25;;;6.20;;
78053;SDS011;67726;45.636;11.752;2023-09-19T06:53:59;12.05;;;6.55;;
78053;SDS011;67726;45.636;11.752;2023-09-19T06:56:26;12.17;;;5.87;;
78053;SDS011;67726;45.636;11.752;2023-09-19T06:58:52;15.55;;;5.95;;
78053;SDS011;67726;45.636;11.752;2023-09-19T07:01:17;11.23;;;5.83;;
78053;SDS011;67726;45.636;11.752;2023-09-19T07:03:43;14.77;;;6.32;;
78053;SDS011;67726;45.636;11.752;2023-09-19T07:06:10;13.85;;;5.95;;
78053;SDS011;67726;45.636;11.752;2023-09-19T07:08:36;14.10;;;6.03;;
78053;SDS011;67726;45.636;11.752;2023-09-19T07:11:03;13.32;;;6.45;;
78053;SDS011;67726;45.636;11.752;2023-09-19T07:13:31;12.93;;;5.93;;
78053;SDS011;67726;45.636;11.752;2023-09-19T07:15:58;16.42;;;5.80;;
78053;SDS011;67726;45.636;11.752;2023-09-19T07:18:24;11.93;;;6.00;;
78053;SDS011;67726;45.636;11.752;2023-09-19T07:20:50;15.17;;;6.47;;
78053;SDS011;67726;45.636;11.752;2023-09-19T07:23:26;14.15;;;5.85;;
78053;SDS011;67726;45.636;11.752;2023-09-19T07:25:51;13.18;;;5.78;;
78053;SDS011;67726;45.636;11.752;2023-09-19T07:28:22;13.73;;;6.17;;
78053;SDS011;67726;45.636;11.752;2023-09-19T07:30:48;12.77;;;6.75;;
78053;SDS011;67726;45.636;11.752;2023-09-19T07:33:13;12.45;;;6.30;;
78053;SDS011;67726;45.636;11.752;2023-09-19T07:35:39;15.20;;;6.43;;
78053;SDS011;67726;45.636;11.752;2023-09-19T07:38:05;13.30;;;6.47;;
78053;SDS011;67726;45.636;11.752;2023-09-19T07:40:31;15.05;;;7.10;;
78053;SDS011;67726;45.636;11.752;2023-09-19T07:42:57;14.63;;;6.53;;
78053;SDS011;67726;45.636;11.752;2023-09-19T07:45:26;14.27;;;6.93;;
78053;SDS011;67726;45.636;11.752;2023-09-19T07:47:57;14.90;;;6.95;;
78053;SDS011;67726;45.636;11.752;2023-09-19T07:50:23;13.18;;;6.13;;
78053;SDS011;67726;45.636;11.752;2023-09-19T07:52:51;14.90;;;6.70;;
78053;SDS011;67726;45.636;11.752;2023-09-19T07:55:18;13.17;;;6.03;;
78053;SDS011;67726;45.636;11.752;2023-09-19T07:57:48;13.25;;;5.78;;
78053;SDS011;67726;45.636;11.752;2023-09-19T08:00:14;12.43;;;6.50;;
78053;SDS011;67726;45.636;11.752;2023-09-19T08:02:40;14.98;;;6.32;;
78053;SDS011;67726;45.636;11.752;2023-09-19T08:05:07;14.43;;;6.75;;
78053;SDS011;67726;45.636;11.752;2023-09-19T08:07:40;14.23;;;7.50;;
78053;SDS011;67726;45.636;11.752;2023-09-19T08:10:07;12.65;;;7.05;;
78053;SDS011;67726;45.636;11.752;2023-09-19T08:12:33;14.57;;;7.20;;
78053;SDS011;67726;45.636;11.752;2023-09-19T08:15:01;14.98;;;8.95;;
78053;SDS011;67726;45.636;11.752;2023-09-19T08:17:34;14.35;;;8.75;;
78053;SDS011;67726;45.636;11.752;2023-09-19T08:20:01;16.20;;;8.90;;
78053;SDS011;67726;45.636;11.752;2023-09-19T08:22:28;14.13;;;8.43;;
78053;SDS011;67726;45.636;11.752;2023-09-19T08:24:53;12.77;;;7.55;;
78053;SDS011;67726;45.636;11.752;2023-09-19T08:27:21;16.80;;;8.40;;
78053;SDS011;67726;45.636;11.752;2023-09-19T08:29:47;18.60;;;8.30;;
78053;SDS011;67726;45.636;11.752;2023-09-19T08:32:12;17.23;;;7.77;;
78053;SDS011;67726;45.636;11.752;2023-09-19T08:34:41;13.82;;;7.72;;
78053;SDS011;67726;45.636;11.752;2023-09-19T08:37:07;14.50;;;8.05;;
78053;SDS011;67726;45.636;11.752;2023-09-19T08:39:32;16.47;;;9.07;;
78053;SDS011;67726;45.636;11.752;2023-09-19T08:42:00;17.65;;;8.25;;
78053;SDS011;67726;45.636;11.752;2023-09-19T08:44:27;18.10;;;8.10;;
78053;SDS011;67726;45.636;11.752;2023-09-19T08:46:55;17.98;;;8.50;;
78053;SDS011;67726;45.636;11.752;2023-09-19T08:49:36;14.77;;;8.68;;
78053;SDS011;67726;45.636;11.752;2023-09-19T08:52:55;14.80;;;8.00;;
78053;SDS011;67726;45.636;11.752;2023-09-19T08:55:02;13.18;;;8.02;;
78053;SDS011;67726;45.636;11.752;2023-09-19T08:57:33;14.27;;;8.23;;
78053;SDS011;67726;45.636;11.752;2023-09-19T09:00:02;13.90;;;7.38;;
78053;SDS011;67726;45.636;11.752;2023-09-19T09:02:40;15.73;;;8.75;;
78053;SDS011;67726;45.636;11.752;2023-09-19T09:05:07;15.73;;;8.20;;
78053;SDS011;67726;45.636;11.752;2023-09-19T09:07:35;14.50;;;7.80;;
78053;SDS011;67726;45.636;11.752;2023-09-19T09:10:02;14.73;;;7.75;;
78053;SDS011;67726;45.636;11.752;2023-09-19T09:12:31;13.10;;;7.47;;
78053;SDS011;67726;45.636;11.752;2023-09-19T09:14:57;16.02;;;7.80;;
78053;SDS011;67726;45.636;11.752;2023-09-19T09:17:23;12.73;;;6.80;;
78053;SDS011;67726;45.636;11.752;2023-09-19T09:19:51;12.65;;;6.90;;
78053;SDS011;67726;45.636;11.752;2023-09-19T09:22:18;15.43;;;7.80;;
78053;SDS011;67726;45.636;11.752;2023-09-19T09:24:58;14.35;;;8.10;;
78053;SDS011;67726;45.636;11.752;2023-09-19T09:27:28;15.48;;;7.18;;
78053;SDS011;67726;45.636;11.752;2023-09-19T09:29:54;13.50;;;7.73;;
78053;SDS011;67726;45.636;11.752;2023-09-19T09:34:51;12.57;;;6.43;;
78053;SDS011;67726;45.636;11.752;2023-09-19T09:37:19;13.98;;;6.93;;
78053;SDS011;67726;45.636;11.752;2023-09-19T09:40:03;14.18;;;7.05;;
78053;SDS011;67726;45.636;11.752;2023-09-19T09:42:55;14.02;;;6.93;;
78053;SDS011;67726;45.636;11.752;2023-09-19T09:45:24;15.88;;;6.68;;
78053;SDS011;67726;45.636;11.752;2023-09-19T09:47:59;11.07;;;6.13;;
78053;SDS011;67726;45.636;11.752;2023-09-19T09:50:29;10.80;;;4.60;;
78053;SDS011;67726;45.636;11.752;2023-09-19T09:56:00;11.00;;;5.30;;
78053;SDS011;67726;45.636;11.752;2023-09-19T09:58:31;12.55;;;5.07;;
78053;SDS011;67726;45.636;11.752;2023-09-19T10:01:01;12.67;;;4.90;;
78053;SDS011;67726;45.636;11.752;2023-09-19T10:03:39;12.15;;;4.90;;
78053;SDS011;67726;45.636;11.752;2023-09-19T10:06:10;8.98;;;4.70;;
78053;SDS011;67726;45.636;11.752;2023-09-19T10:11:40;11.90;;;4.60;;
78053;SDS011;67726;45.636;11.752;2023-09-19T10:14:11;8.43;;;3.97;;
78053;SDS011;67726;45.636;11.752;2023-09-19T10:16:40;10.77;;;4.72;;
78053;SDS011;67726;45.636;11.752;2023-09-19T10:22:09;10.27;;;4.40;;
78053;SDS011;67726;45.636;11.752;2023-09-19T10:24:39;11.75;;;4.68;;
78053;SDS011;67726;45.636;11.752;2023-09-19T10:27:06;10.47;;;4.50;;
78053;SDS011;67726;45.636;11.752;2023-09-19T10:29:36;10.52;;;4.38;;
78053;SDS011;67726;45.636;11.752;2023-09-19T10:32:05;10.88;;;4.40;;
78053;SDS011;67726;45.636;11.752;2023-09-19T10:34:34;9.88;;;4.35;;
78053;SDS011;67726;45.636;11.752;2023-09-19T10:37:01;9.75;;;4.63;;
78053;SDS011;67726;45.636;11.752;2023-09-19T10:39:31;10.77;;;4.13;;
78053;SDS011;67726;45.636;11.752;2023-09-19T10:41:58;12.95;;;4.45;;
78053;SDS011;67726;45.636;11.752;2023-09-19T10:44:31;12.18;;;4.32;;
78053;SDS011;67726;45.636;11.752;2023-09-19T10:46:58;9.98;;;4.30;;
78053;SDS011;67726;45.636;11.752;2023-09-19T10:49:24;13.00;;;4.85;;
78053;SDS011;67726;45.636;11.752;2023-09-19T10:51:54;12.40;;;4.50;;
78053;SDS011;67726;45.636;11.752;2023-09-19T10:54:24;14.00;;;4.75;;
78053;SDS011;67726;45.636;11.752;2023-09-19T10:56:54;11.73;;;4.68;;
78053;SDS011;67726;45.636;11.752;2023-09-19T10:59:23;8.98;;;4.85;;
78053;SDS011;67726;45.636;11.752;2023-09-19T11:01:55;11.02;;;5.18;;
78053;SDS011;67726;45.636;11.752;2023-09-19T11:04:28;10.90;;;5.00;;
78053;SDS011;67726;45.636;11.752;2023-09-19T11:07:08;15.57;;;5.63;;
78053;SDS011;67726;45.636;11.752;2023-09-19T11:09:46;13.82;;;4.88;;
78053;SDS011;67726;45.636;11.752;2023-09-19T11:14:59;13.85;;;4.93;;
78053;SDS011;67726;45.636;11.752;2023-09-19T11:17:42;8.87;;;4.13;;
78053;SDS011;67726;45.636;11.752;2023-09-19T11:30:39;10.02;;;4.13;;
78053;SDS011;67726;45.636;11.752;2023-09-19T11:43:47;10.40;;;4.65;;
78053;SDS011;67726;45.636;11.752;2023-09-19T11:46:13;13.27;;;4.70;;
78053;SDS011;67726;45.636;11.752;2023-09-19T11:48:41;12.20;;;4.60;;
78053;SDS011;67726;45.636;11.752;2023-09-19T11:51:16;11.63;;;4.60;;
78053;SDS011;67726;45.636;11.752;2023-09-19T11:53:51;12.07;;;4.13;;
78053;SDS011;67726;45.636;11.752;2023-09-19T11:56:19;7.68;;;3.85;;
78053;SDS011;67726;45.636;11.752;2023-09-19T11:58:48;9.37;;;4.30;;
78053;SDS011;67726;45.636;11.752;2023-09-19T12:01:16;11.00;;;3.95;;
78053;SDS011;67726;45.636;11.752;2023-09-19T12:03:54;10.43;;;3.78;;
78053;SDS011;67726;45.636;11.752;2023-09-19T12:06:27;11.30;;;3.92;;
78053;SDS011;67726;45.636;11.752;2023-09-19T12:09:01;11.02;;;3.95;;
78053;SDS011;67726;45.636;11.752;2023-09-19T12:11:32;9.47;;;3.67;;
78053;SDS011;67726;45.636;11.752;2023-09-19T12:14:03;9.77;;;3.40;;
78053;SDS011;67726;45.636;11.752;2023-09-19T12:16:29;8.63;;;3.05;;
78053;SDS011;67726;45.636;11.752;2023-09-19T12:18:56;7.47;;;3.22;;
78053;SDS011;67726;45.636;11.752;2023-09-19T12:21:29;12.10;;;3.43;;
78053;SDS011;67726;45.636;11.752;2023-09-19T12:24:13;8.85;;;2.70;;
78053;SDS011;67726;45.636;11.752;2023-09-19T12:26:44;7.95;;;3.22;;
78053;SDS011;67726;45.636;11.752;2023-09-19T12:29:20;9.85;;;3.50;;
78053;SDS011;67726;45.636;11.752;2023-09-19T12:31:56;9.32;;;3.00;;
78053;SDS011;67726;45.636;11.752;2023-09-19T12:34:24;11.47;;;3.77;;
78053;SDS011;67726;45.636;11.752;2023-09-19T12:39:47;13.55;;;4.03;;
78053;SDS011;67726;45.636;11.752;2023-09-19T12:42:14;9.98;;;4.38;;
78053;SDS011;67726;45.636;11.752;2023-09-19T12:44:42;11.00;;;4.57;;
78053;SDS011;67726;45.636;11.752;2023-09-19T12:47:10;10.23;;;3.90;;
78053;SDS011;67726;45.636;11.752;2023-09-19T12:50:04;10.55;;;3.88;;
78053;SDS011;67726;45.636;11.752;2023-09-19T12:52:40;9.50;;;4.20;;
78053;SDS011;67726;45.636;11.752;2023-09-19T12:55:07;8.90;;;3.70;;
78053;SDS011;67726;45.636;11.752;2023-09-19T12:57:35;12.10;;;3.70;;
78053;SDS011;67726;45.636;11.752;2023-09-19T13:00:03;9.40;;;3.93;;
78053;SDS011;67726;45.636;11.752;2023-09-19T13:02:31;11.73;;;4.05;;
78053;SDS011;67726;45.636;11.752;2023-09-19T13:04:57;9.35;;;3.90;;
78053;SDS011;67726;45.636;11.752;2023-09-19T13:07:44;10.10;;;3.65;;
78053;SDS011;67726;45.636;11.752;2023-09-19T13:10:12;12.70;;;4.10;;
78053;SDS011;67726;45.636;11.752;2023-09-19T13:12:41;11.03;;;4.03;;
78053;SDS011;67726;45.636;11.752;2023-09-19T13:15:09;10.18;;;3.75;;
78053;SDS011;67726;45.636;11.752;2023-09-19T13:17:45;8.93;;;3.50;;
78053;SDS011;67726;45.636;11.752;2023-09-19T13:20:23;12.57;;;3.63;;
78053;SDS011;67726;45.636;11.752;2023-09-19T13:22:52;9.13;;;3.65;;
78053;SDS011;67726;45.636;11.752;2023-09-19T13:25:20;7.93;;;3.57;;
78053;SDS011;67726;45.636;11.752;2023-09-19T13:27:50;10.57;;;3.58;;
78053;SDS011;67726;45.636;11.752;2023-09-19T13:30:24;9.00;;;3.90;;
78053;SDS011;67726;45.636;11.752;2023-09-19T13:32:52;9.93;;;3.65;;
78053;SDS011;67726;45.636;11.752;2023-09-19T13:35:30;11.63;;;3.47;;
78053;SDS011;67726;45.636;11.752;2023-09-19T13:37:57;12.70;;;3.23;;
78053;SDS011;67726;45.636;11.752;2023-09-19T13:40:24;10.70;;;3.40;;
78053;SDS011;67726;45.636;11.752;2023-09-19T13:42:59;7.70;;;2.85;;
78053;SDS011;67726;45.636;11.752;2023-09-19T13:45:25;9.02;;;3.00;;
78053;SDS011;67726;45.636;11.752;2023-09-19T13:47:52;8.45;;;3.10;;
78053;SDS011;67726;45.636;11.752;2023-09-19T13:50:18;8.03;;;2.50;;
78053;SDS011;67726;45.636;11.752;2023-09-19T13:52:49;7.82;;;2.75;;
78053;SDS011;67726;45.636;11.752;2023-09-19T13:55:16;8.45;;;2.80;;
78053;SDS011;67726;45.636;11.752;2023-09-19T13:57:45;8.60;;;3.10;;
78053;SDS011;67726;45.636;11.752;2023-09-19T14:00:21;8.23;;;2.72;;
78053;SDS011;67726;45.636;11.752;2023-09-19T14:02:47;9.20;;;2.60;;
78053;SDS011;67726;45.636;11.752;2023-09-19T14:05:14;8.13;;;2.53;;
78053;SDS011;67726;45.636;11.752;2023-09-19T14:07:44;8.45;;;2.50;;
78053;SDS011;67726;45.636;11.752;2023-09-19T14:10:11;8.43;;;2.50;;
78053;SDS011;67726;45.636;11.752;2023-09-19T14:12:37;8.77;;;2.97;;
78053;SDS011;67726;45.636;11.752;2023-09-19T14:15:08;10.30;;;2.77;;
78053;SDS011;67726;45.636;11.752;2023-09-19T14:17:34;8.48;;;3.10;;
78053;SDS011;67726;45.636;11.752;2023-09-19T14:20:00;9.13;;;3.20;;
78053;SDS011;67726;45.636;11.752;2023-09-19T14:22:25;9.77;;;3.37;;
78053;SDS011;67726;45.636;11.752;2023-09-19T14:24:51;10.73;;;3.03;;
78053;SDS011;67726;45.636;11.752;2023-09-19T14:27:17;9.35;;;3.05;;
78053;SDS011;67726;45.636;11.752;2023-09-19T14:29:43;9.00;;;3.00;;
78053;SDS011;67726;45.636;11.752;2023-09-19T14:32:09;8.87;;;2.90;;
78053;SDS011;67726;45.636;11.752;2023-09-19T14:34:35;8.77;;;3.38;;
78053;SDS011;67726;45.636;11.752;2023-09-19T14:37:06;9.57;;;3.35;;
78053;SDS011;67726;45.636;11.752;2023-09-19T14:39:36;10.07;;;3.30;;
78053;SDS011;67726;45.636;11.752;2023-09-19T14:42:05;10.77;;;3.20;;
78053;SDS011;67726;45.636;11.752;2023-09-19T14:44:30;9.93;;;2.90;;
78053;SDS011;67726;45.636;11.752;2023-09-19T14:46:56;8.83;;;2.90;;
78053;SDS011;67726;45.636;11.752;2023-09-19T14:49:22;9.57;;;2.92;;
78053;SDS011;67726;45.636;11.752;2023-09-19T14:51:47;8.03;;;3.00;;
78053;SDS011;67726;45.636;11.752;2023-09-19T14:54:13;8.82;;;3.45;;
78053;SDS011;67726;45.636;11.752;2023-09-19T14:56:42;10.00;;;3.25;;
78053;SDS011;67726;45.636;11.752;2023-09-19T14:59:08;11.13;;;3.43;;
78053;SDS011;67726;45.636;11.752;2023-09-19T15:01:36;10.02;;;3.45;;
78053;SDS011;67726;45.636;11.752;2023-09-19T15:04:02;8.57;;;3.13;;
78053;SDS011;67726;45.636;11.752;2023-09-19T15:06:27;9.07;;;3.13;;
78053;SDS011;67726;45.636;11.752;2023-09-19T15:08:53;8.73;;;2.85;;
78053;SDS011;67726;45.636;11.752;2023-09-19T15:11:19;10.45;;;3.25;;
78053;SDS011;67726;45.636;11.752;2023-09-19T15:13:46;8.73;;;2.90;;
78053;SDS011;67726;45.636;11.752;2023-09-19T15:16:13;9.70;;;3.20;;
78053;SDS011;67726;45.636;11.752;2023-09-19T15:18:42;9.23;;;3.17;;
78053;SDS011;67726;45.636;11.752;2023-09-19T15:21:12;12.48;;;3.42;;
78053;SDS011;67726;45.636;11.752;2023-09-19T15:23:40;9.13;;;3.15;;
78053;SDS011;67726;45.636;11.752;2023-09-19T15:26:07;11.97;;;3.20;;
78053;SDS011;67726;45.636;11.752;2023-09-19T15:28:34;9.80;;;3.30;;
78053;SDS011;67726;45.636;11.752;2023-09-19T15:31:02;10.73;;;3.85;;